createdAt,value
2018-09-21T00:00:29.405Z,1000.1
2018-09-21T00:01:09.880Z,1000.14
2018-09-21T00:01:51.063Z,1000.1
2018-09-21T00:02:30.678Z,1000.08
2018-09-21T00:03:11.118Z,1000.1
2018-09-21T00:03:51.586Z,1000.06
2018-09-21T00:04:32.079Z,1000.08
2018-09-21T00:05:12.500Z,1000.08
2018-09-21T00:05:52.847Z,1000.08
2018-09-21T00:06:33.264Z,1000.02
2018-09-21T00:07:13.685Z,1000.03
2018-09-21T00:07:54.180Z,1000.02
2018-09-21T00:08:34.909Z,1000.01
2018-09-21T00:09:15.500Z,1000
2018-09-21T00:09:56.387Z,999.95
2018-09-21T00:10:37.472Z,999.97
2018-09-21T00:11:17.935Z,999.99
2018-09-21T00:11:58.276Z,1000
2018-09-21T00:12:38.795Z,1000.01
2018-09-21T00:13:19.280Z,999.93
2018-09-21T00:20:00.200Z,999.88
2018-09-21T00:20:39.778Z,999.92
2018-09-21T00:21:20.231Z,999.92
2018-09-21T00:22:00.566Z,999.86
2018-09-21T00:22:40.921Z,999.82
2018-09-21T00:23:21.302Z,999.87
2018-09-21T00:24:01.695Z,999.84
2018-09-21T00:24:42.113Z,999.82
2018-09-21T00:25:23.456Z,999.78
2018-09-21T00:26:04.093Z,999.71
2018-09-21T00:26:44.654Z,999.74
2018-09-21T00:27:25.947Z,999.8
2018-09-21T00:28:06.101Z,999.74
2018-09-21T00:28:46.484Z,999.72
2018-09-21T00:29:26.980Z,999.77
2018-09-21T00:30:07.933Z,999.77
2018-09-21T00:30:48.913Z,999.76
2018-09-21T00:31:29.387Z,999.81
2018-09-21T00:32:09.712Z,999.8
2018-09-21T00:32:50.859Z,999.78
2018-09-21T00:33:31.292Z,999.8
2018-09-21T00:34:11.714Z,999.82
2018-09-21T00:34:52.155Z,999.78
2018-09-21T00:35:33.665Z,999.76
2018-09-21T00:36:14.020Z,999.75
2018-09-21T00:36:54.553Z,999.8
2018-09-21T00:37:34.998Z,999.86
2018-09-21T00:38:15.510Z,999.75
2018-09-21T00:38:55.976Z,999.83
2018-09-21T00:39:36.612Z,999.79
2018-09-21T00:40:16.732Z,999.78
2018-09-21T00:40:57.764Z,999.74
2018-09-21T00:41:41.122Z,999.78
2018-09-21T00:42:20.429Z,999.7
2018-09-21T00:43:01.240Z,999.74
2018-09-21T00:43:41.608Z,999.72
2018-09-21T00:44:22.450Z,999.77
2018-09-21T00:45:02.880Z,999.73
2018-09-21T00:45:43.258Z,999.66
2018-09-21T00:46:24.445Z,999.68
2018-09-21T00:47:05.295Z,999.62
2018-09-21T00:47:46.455Z,999.64
2018-09-21T00:48:26.924Z,999.67
2018-09-21T00:49:07.300Z,999.61
2018-09-21T00:49:47.723Z,999.68
2018-09-21T00:50:28.136Z,999.7
2018-09-21T00:51:08.517Z,999.57
2018-09-21T00:51:48.921Z,999.61
2018-09-21T00:52:29.388Z,999.6
2018-09-21T00:53:10.214Z,999.57
2018-09-21T00:53:50.486Z,999.56
2018-09-21T00:54:31.048Z,999.53
2018-09-21T00:55:11.460Z,999.5
2018-09-21T00:55:51.838Z,999.51
2018-09-21T00:56:32.197Z,999.48
2018-09-21T00:57:12.619Z,999.48
2018-09-21T00:57:53.067Z,999.43
2018-09-21T00:58:33.717Z,999.44
2018-09-21T00:59:13.870Z,999.41
2018-09-21T00:59:54.332Z,999.38
2018-09-21T01:00:35.136Z,999.34
2018-09-21T01:01:15.682Z,999.31
2018-09-21T01:01:56.134Z,999.34
2018-09-21T01:02:36.924Z,999.3
2018-09-21T01:03:17.191Z,999.26
2018-09-21T01:03:58.257Z,999.29
2018-09-21T01:04:38.676Z,999.29
2018-09-21T01:05:19.195Z,999.28
2018-09-21T01:05:59.613Z,999.34
2018-09-21T01:06:39.962Z,999.38
2018-09-21T01:07:20.387Z,999.31
2018-09-21T01:08:00.820Z,999.28
2018-09-21T01:08:41.742Z,999.29
2018-09-21T01:09:22.126Z,999.25
2018-09-21T01:10:02.848Z,999.24
2018-09-21T01:10:43.448Z,999.24
2018-09-21T01:11:24.167Z,999.29
2018-09-21T01:12:05.650Z,999.23
2018-09-21T01:12:46.011Z,999.22
2018-09-21T01:13:26.855Z,999.2
2018-09-21T01:14:07.366Z,999.2
2018-09-21T01:14:47.652Z,999.22
2018-09-21T01:15:28.073Z,999.2
2018-09-21T01:16:09.049Z,999.13
2018-09-21T01:16:49.768Z,999.14
2018-09-21T01:17:30.896Z,999.19
2018-09-21T01:18:11.427Z,999.16
2018-09-21T01:18:51.986Z,999.14
2018-09-21T01:19:32.280Z,999.17
2018-09-21T01:20:13.147Z,999.17
2018-09-21T01:20:54.580Z,999.14
2018-09-21T01:21:34.418Z,999.15
2018-09-21T01:22:14.945Z,999.15
2018-09-21T01:22:55.382Z,999.19
2018-09-21T01:23:35.986Z,999.14
2018-09-21T01:24:17.059Z,999.07
2018-09-21T01:24:57.705Z,999.08
2018-09-21T01:25:38.090Z,999.12
2018-09-21T01:26:19.035Z,999.06
2018-09-21T01:26:59.478Z,999.04
2018-09-21T01:27:40.148Z,999.03
2018-09-21T01:28:20.485Z,999.07
2018-09-21T01:29:00.928Z,999.07
2018-09-21T01:29:41.285Z,999.04
2018-09-21T01:30:21.743Z,999.05
2018-09-21T01:31:02.080Z,999.1
2018-09-21T01:31:42.528Z,999.06
2018-09-21T01:32:23.154Z,998.97
2018-09-21T01:33:03.379Z,999.01
2018-09-21T01:33:43.869Z,998.96
2018-09-21T01:34:25.015Z,998.95
2018-09-21T01:35:05.454Z,998.99
2018-09-21T01:35:45.839Z,999
2018-09-21T01:36:26.436Z,998.92
2018-09-21T01:37:07.300Z,998.85
2018-09-21T01:37:47.737Z,998.88
2018-09-21T01:38:28.107Z,998.9
2018-09-21T01:39:08.660Z,998.85
2018-09-21T01:39:49.318Z,998.83
2018-09-21T01:40:29.686Z,998.87
2018-09-21T01:41:10.117Z,998.86
2018-09-21T01:41:50.534Z,998.84
2018-09-21T01:42:30.947Z,998.85
2018-09-21T01:43:11.362Z,998.85
2018-09-21T01:43:51.807Z,998.77
2018-09-21T01:44:32.228Z,998.81
2018-09-21T01:45:12.613Z,998.79
2018-09-21T01:45:53.042Z,998.81
2018-09-21T01:46:33.432Z,998.85
2018-09-21T01:47:13.906Z,998.79
2018-09-21T01:47:54.219Z,998.84
2018-09-21T01:48:34.725Z,998.76
2018-09-21T01:49:14.997Z,998.69
2018-09-21T01:49:55.397Z,998.77
2018-09-21T01:50:35.888Z,998.73
2018-09-21T01:51:16.296Z,998.73
2018-09-21T01:51:56.648Z,998.76
2018-09-21T01:52:37.068Z,998.78
2018-09-21T01:53:17.342Z,998.77
2018-09-21T01:53:57.823Z,998.77
2018-09-21T01:54:38.179Z,998.65
2018-09-21T01:55:18.611Z,998.71
2018-09-21T01:55:58.999Z,998.74
2018-09-21T01:56:39.508Z,998.71
2018-09-21T01:57:19.859Z,998.59
2018-09-21T01:58:00.299Z,998.63
2018-09-21T01:58:40.647Z,998.63
2018-09-21T01:59:21.044Z,998.63
2018-09-21T02:00:01.461Z,998.61
2018-09-21T02:00:41.866Z,998.58
2018-09-21T02:01:22.262Z,998.55
2018-09-21T02:02:02.676Z,998.56
2018-09-21T02:02:43.071Z,998.54
2018-09-21T02:03:23.431Z,998.52
2018-09-21T02:04:03.824Z,998.56
2018-09-21T02:04:46.022Z,998.56
2018-09-21T02:05:26.432Z,998.57
2018-09-21T02:06:06.856Z,998.5
2018-09-21T02:06:47.534Z,998.53
2018-09-21T02:07:27.994Z,998.47
2018-09-21T02:08:08.866Z,998.46
2018-09-21T02:08:49.181Z,998.47
2018-09-21T02:09:29.732Z,998.43
2018-09-21T02:10:10.033Z,998.42
2018-09-21T02:10:50.423Z,998.41
2018-09-21T02:11:45.904Z,998.44
2018-09-21T02:12:26.282Z,998.43
2018-09-21T02:13:06.653Z,998.43
2018-09-21T02:13:47.260Z,998.39
2018-09-21T02:14:27.564Z,998.38
2018-09-21T02:15:08.062Z,998.37
2018-09-21T02:15:48.458Z,998.4
2018-09-21T02:16:28.835Z,998.32
2018-09-21T02:17:09.325Z,998.33
2018-09-21T02:17:49.669Z,998.26
2018-09-21T02:18:30.229Z,998.24
2018-09-21T02:19:10.686Z,998.29
2018-09-21T02:19:50.996Z,998.26
2018-09-21T02:20:33.757Z,998.22
2018-09-21T02:21:14.225Z,998.17
2018-09-21T02:21:55.566Z,998.19
2018-09-21T02:22:36.032Z,998.14
2018-09-21T02:23:16.235Z,998.18
2018-09-21T02:23:56.653Z,998.14
2018-09-21T02:24:37.129Z,998.06
2018-09-21T02:25:17.576Z,998.12
2018-09-21T02:25:58.068Z,998.12
2018-09-21T02:26:39.129Z,998.07
2018-09-21T02:27:18.941Z,998.05
2018-09-21T02:27:59.377Z,998.09
2018-09-21T02:28:39.783Z,998.12
2018-09-21T02:29:20.212Z,997.99
2018-09-21T02:30:03.108Z,997.98
2018-09-21T02:30:44.116Z,998.04
2018-09-21T02:31:24.368Z,998.05
2018-09-21T02:32:04.651Z,997.98
2018-09-21T02:32:45.198Z,997.9
2018-09-21T02:33:26.822Z,997.89
2018-09-21T02:34:07.272Z,997.99
2018-09-21T02:34:47.722Z,997.99
2018-09-21T02:35:28.029Z,997.92
2018-09-21T02:36:08.521Z,997.92
2018-09-21T02:36:48.850Z,997.87
2018-09-21T02:37:29.295Z,997.94
2018-09-21T02:38:10.530Z,997.82
2018-09-21T02:38:50.760Z,997.84
2018-09-21T02:39:31.830Z,997.9
2018-09-21T02:40:12.216Z,997.8
2018-09-21T02:40:52.721Z,997.76
2018-09-21T02:41:33.259Z,997.78
2018-09-21T02:42:13.544Z,997.79
2018-09-21T02:42:53.965Z,997.71
2018-09-21T02:43:34.284Z,997.72
2018-09-21T02:44:14.957Z,997.74
2018-09-21T02:44:55.204Z,997.69
2018-09-21T02:45:35.639Z,997.78
2018-09-21T02:46:16.006Z,997.72
2018-09-21T02:46:56.343Z,997.74
2018-09-21T02:47:36.807Z,997.77
2018-09-21T02:48:17.157Z,997.75
2018-09-21T02:48:57.553Z,997.72
2018-09-21T02:49:37.923Z,997.7
2018-09-21T02:50:18.374Z,997.66
2018-09-21T02:50:58.777Z,997.64
2018-09-21T02:51:39.145Z,997.62
2018-09-21T02:52:19.572Z,997.66
2018-09-21T02:53:00.006Z,997.65
2018-09-21T02:53:40.425Z,997.61
2018-09-21T02:54:21.069Z,997.6
2018-09-21T02:55:01.353Z,997.56
2018-09-21T02:55:41.784Z,997.57
2018-09-21T02:56:22.144Z,997.53
2018-09-21T02:57:02.585Z,997.52
2018-09-21T02:57:43.136Z,997.54
2018-09-21T02:58:23.791Z,997.54
2018-09-21T02:59:04.035Z,997.46
2018-09-21T02:59:44.482Z,997.5
2018-09-21T03:09:33.441Z,997.21
2018-09-21T03:10:13.755Z,997.29
2018-09-21T03:10:54.586Z,997.23
2018-09-21T03:11:34.764Z,997.26
2018-09-21T03:17:15.522Z,997.1
2018-09-21T03:17:55.916Z,997.07
2018-09-21T03:18:36.324Z,996.99
2018-09-21T03:19:16.834Z,997.04
2018-09-21T03:19:57.253Z,997.11
2018-09-21T03:20:37.633Z,997.05
2018-09-21T03:21:18.008Z,997.04
2018-09-21T03:21:58.415Z,997.03
2018-09-21T03:22:38.837Z,997.13
2018-09-21T03:23:19.541Z,996.94
2018-09-21T03:23:59.954Z,997.02
2018-09-21T03:26:26.844Z,996.84
2018-09-21T03:27:07.394Z,996.89
2018-09-21T03:27:47.833Z,996.81
2018-09-21T03:28:28.229Z,996.69
2018-09-21T03:29:08.641Z,996.68
2018-09-21T03:29:49.047Z,996.67
2018-09-21T03:33:04.543Z,996.71
2018-09-21T03:33:46.969Z,996.77
2018-09-21T03:34:28.334Z,996.69
2018-09-21T03:35:09.208Z,996.74
2018-09-21T03:35:50.126Z,996.75
2018-09-21T03:36:30.742Z,996.73
2018-09-21T03:37:11.954Z,996.72
2018-09-21T03:37:51.980Z,996.68
2018-09-21T03:38:32.065Z,996.64
2018-09-21T03:39:13.733Z,996.65
2018-09-21T03:39:53.663Z,996.65
2018-09-21T03:40:34.171Z,996.66
2018-09-21T03:41:14.563Z,996.62
2018-09-21T03:41:55.950Z,996.6
2018-09-21T03:42:36.351Z,996.6
2018-09-21T03:43:16.748Z,996.61
2018-09-21T03:43:57.258Z,996.51
2018-09-21T03:44:37.577Z,996.53
2018-09-21T03:45:18.249Z,996.55
2018-09-21T03:45:58.718Z,996.5
2018-09-21T03:46:39.147Z,996.46
2018-09-21T03:47:19.552Z,996.5
2018-09-21T03:48:00.134Z,996.49
2018-09-21T03:48:40.714Z,996.44
2018-09-21T03:49:21.151Z,996.43
2018-09-21T03:50:01.572Z,996.34
2018-09-21T03:50:42.167Z,996.4
2018-09-21T03:51:22.620Z,996.38
2018-09-21T03:52:03.004Z,996.42
2018-09-21T03:52:44.559Z,996.37
2018-09-21T03:53:25.099Z,996.45
2018-09-21T03:54:05.552Z,996.41
2018-09-21T03:54:45.942Z,996.4
2018-09-21T03:55:26.620Z,996.39
2018-09-21T03:56:07.013Z,996.44
2018-09-21T03:56:47.479Z,996.36
2018-09-21T03:57:28.092Z,996.35
2018-09-21T03:58:09.344Z,996.4
2018-09-21T03:58:49.741Z,996.37
2018-09-21T03:59:30.153Z,996.38
2018-09-21T04:00:10.583Z,996.37
2018-09-21T04:00:51.093Z,996.36
2018-09-21T04:01:31.414Z,996.36
2018-09-21T04:03:24.268Z,996.33
2018-09-21T04:05:38.846Z,996.36
2018-09-21T04:06:19.219Z,996.36
2018-09-21T04:06:59.637Z,996.31
2018-09-21T04:07:40.056Z,996.27
2018-09-21T04:08:21.386Z,996.31
2018-09-21T04:09:02.114Z,996.23
2018-09-21T04:09:42.526Z,996.25
2018-09-21T04:10:22.902Z,995.94
2018-09-21T04:11:04.314Z,996.25
2018-09-21T04:11:44.725Z,996.22
2018-09-21T04:12:25.394Z,996.24
2018-09-21T04:13:06.939Z,996.22
2018-09-21T04:13:47.110Z,996.21
2018-09-21T04:14:27.698Z,996.22
2018-09-21T04:15:08.232Z,996.16
2018-09-21T04:15:48.710Z,996.15
2018-09-21T04:16:29.142Z,996.2
2018-09-21T04:17:09.510Z,996.22
2018-09-21T04:17:49.961Z,996.24
2018-09-21T04:18:31.784Z,996.22
2018-09-21T04:19:12.098Z,996.22
2018-09-21T04:19:52.597Z,996.22
2018-09-21T04:20:33.099Z,996.24
2018-09-21T04:21:13.661Z,996.24
2018-09-21T04:21:54.069Z,996.21
2018-09-21T04:22:34.562Z,996.2
2018-09-21T04:23:15.272Z,996.24
2018-09-21T04:23:56.039Z,996.2
2018-09-21T04:24:36.493Z,996.23
2018-09-21T04:25:16.882Z,996.38
2018-09-21T04:25:57.340Z,996.27
2018-09-21T04:26:37.741Z,996.29
2018-09-21T04:27:18.183Z,996.32
2018-09-21T04:27:58.658Z,996.32
2018-09-21T05:09:21.559Z,995.88
2018-09-21T05:11:36.196Z,995.84
2018-09-21T05:12:31.620Z,995.96
2018-09-21T05:13:27.122Z,995.85
2018-09-21T05:14:21.794Z,995.89
2018-09-21T05:15:17.145Z,995.93
2018-09-21T05:16:13.072Z,995.82
2018-09-21T05:17:10.835Z,995.77
2018-09-21T05:18:03.576Z,995.82
2018-09-21T05:19:00.943Z,995.76
2018-09-21T05:19:55.875Z,995.74
2018-09-21T05:20:49.388Z,995.77
2018-09-21T05:21:46.124Z,995.76
2018-09-21T05:22:39.641Z,995.75
2018-09-21T05:23:37.541Z,995.82
2018-09-21T05:24:38.997Z,995.73
2018-09-21T05:26:04.638Z,995.79
2018-09-21T05:27:09.341Z,995.7
2018-09-21T05:28:19.773Z,995.79
2018-09-21T05:29:21.941Z,995.78
2018-09-21T05:31:59.493Z,995.87
2018-09-21T05:32:55.257Z,995.91
2018-09-21T05:33:47.831Z,995.93
2018-09-21T05:34:41.827Z,995.89
2018-09-21T05:35:37.245Z,995.91
2018-09-21T05:36:32.514Z,995.94
2018-09-21T05:37:27.069Z,995.88
2018-09-21T05:38:20.813Z,995.91
2018-09-21T05:39:01.476Z,995.91
2018-09-21T05:39:42.483Z,996.01
2018-09-21T05:40:23.598Z,995.93
2018-09-21T05:41:05.039Z,995.89
2018-09-21T05:41:46.991Z,995.84
2018-09-21T05:42:28.300Z,995.92
2018-09-21T05:43:09.347Z,995.87
2018-09-21T05:43:49.740Z,995.97
2018-09-21T05:44:31.740Z,995.86
2018-09-21T05:46:48.304Z,995.9
2018-09-21T05:47:46.090Z,995.9
2018-09-21T06:28:00.696Z,995.91
2018-09-21T06:29:04.056Z,995.87
2018-09-21T06:31:35.422Z,995.9
2018-09-21T06:32:28.777Z,995.85
2018-09-21T06:33:33.026Z,995.82
2018-09-21T06:34:42.607Z,995.83
2018-09-21T06:36:42.432Z,995.7
2018-09-21T06:37:51.855Z,995.67
2018-09-21T06:38:52.542Z,995.65
2018-09-21T06:39:59.502Z,995.65
2018-09-21T06:40:55.822Z,995.56
2018-09-21T06:42:08.988Z,995.56
2018-09-21T06:43:19.319Z,995.65
2018-09-21T06:44:24.552Z,995.73
2018-09-21T06:45:28.427Z,995.81
2018-09-21T06:46:31.835Z,995.93
2018-09-21T06:48:43.120Z,995.76
2018-09-21T06:52:47.957Z,995.92
2018-09-21T06:58:27.051Z,996.01
2018-09-21T07:01:12.383Z,996.03
2018-09-21T07:02:10.511Z,996.08
2018-09-21T07:03:06.993Z,996.12
2018-09-21T07:04:02.478Z,996.06
2018-09-21T07:05:05.789Z,996.11
2018-09-21T07:06:04.839Z,996.19
2018-09-21T07:07:01.963Z,996.18
2018-09-21T07:08:04.017Z,996.22
2018-09-21T07:09:03.663Z,996.21
2018-09-21T07:09:54.419Z,996.23
2018-09-21T07:10:35.817Z,996.2
2018-09-21T07:11:17.384Z,996.19
2018-09-21T07:11:59.559Z,996.17
2018-09-21T07:12:39.886Z,996.17
2018-09-21T07:13:20.755Z,996.11
2018-09-21T07:14:08.285Z,996.05
2018-09-21T07:14:52.452Z,995.99
2018-09-21T07:15:35.197Z,996.02
2018-09-21T07:16:25.022Z,996.01
2018-09-21T07:18:37.049Z,995.94
2018-09-21T07:19:35.908Z,995.99
2018-09-21T07:20:32.508Z,996.02
2018-09-21T07:21:33.995Z,995.92
2018-09-21T07:22:41.455Z,995.92
2018-09-21T07:23:45.127Z,995.92
2018-09-21T07:27:58.769Z,995.81
2018-09-21T07:28:59.953Z,995.82
2018-09-21T07:29:58.318Z,995.83
2018-09-21T07:30:57.709Z,995.85
2018-09-21T07:31:38.657Z,995.83
2018-09-21T07:32:19.374Z,995.79
2018-09-21T07:33:04.121Z,995.75
2018-09-21T07:35:48.399Z,995.8
2018-09-21T07:36:49.738Z,995.74
2018-09-21T07:37:52.583Z,995.78
2018-09-21T07:39:05.582Z,995.63
2018-09-21T07:40:06.319Z,995.43
2018-09-21T07:41:23.233Z,995.55
2018-09-21T07:52:09.980Z,995.54
2018-09-21T07:53:39.783Z,995.46
2018-09-21T07:54:57.802Z,995.48
2018-09-21T07:55:46.263Z,995.68
2018-09-21T07:56:26.802Z,995.73
2018-09-21T07:57:12.948Z,995.77
2018-09-21T07:57:54.568Z,995.8
2018-09-21T07:58:38.456Z,995.84
2018-09-21T07:59:20.458Z,995.94
2018-09-21T08:00:04.914Z,995.99
2018-09-21T08:00:45.653Z,996
2018-09-21T08:10:05.104Z,995.73
2018-09-21T08:20:43.736Z,995.77
2018-09-21T08:21:41.895Z,995.9
2018-09-21T08:22:40.387Z,995.89
2018-09-21T08:23:46.414Z,995.85
2018-09-21T08:25:02.908Z,995.93
2018-09-21T08:28:03.660Z,996
2018-09-21T08:29:15.486Z,995.99
2018-09-21T08:30:16.940Z,995.98
2018-09-21T08:31:15.141Z,995.98
2018-09-21T08:45:45.358Z,996.52
2018-09-21T08:46:49.547Z,996.61
2018-09-21T08:47:51.554Z,996.61
2018-09-21T08:48:53.724Z,996.57
2018-09-21T08:49:57.317Z,996.96
2018-09-21T08:50:41.366Z,996.95
2018-09-21T08:51:22.873Z,996.95
2018-09-21T08:52:06.316Z,997.31
2018-09-21T08:52:49.242Z,997.38
2018-09-21T08:53:30.394Z,997.63
2018-09-21T08:54:11.907Z,997.79
2018-09-21T08:54:53.563Z,997.69
2018-09-21T08:55:35.033Z,997.59
2018-09-21T08:56:15.520Z,997.48
2018-09-21T08:57:00.338Z,997.78
2018-09-21T08:57:45.108Z,997.8
2018-09-21T08:58:26.271Z,997.74
2018-09-21T08:59:06.809Z,998.02
2018-09-21T08:59:50.892Z,998.09
2018-09-21T09:00:31.372Z,998.1
2018-09-21T09:01:14.230Z,997.81
2018-09-21T09:01:55.630Z,997.99
2018-09-21T09:02:40.748Z,998.15
2018-09-21T09:03:24.390Z,998.15
2018-09-21T09:12:49.785Z,998.59
2018-09-21T09:13:30.593Z,998.63
2018-09-21T09:14:11.142Z,998.69
2018-09-21T09:14:51.771Z,998.62
2018-09-21T09:15:32.378Z,998.69
2018-09-21T09:16:13.357Z,998.62
2018-09-21T09:16:55.231Z,998.77
2018-09-21T09:17:35.645Z,998.75
2018-09-21T09:18:17.905Z,998.67
2018-09-21T09:18:57.641Z,998.76
2018-09-21T09:19:39.341Z,998.67
2018-09-21T09:20:20.198Z,998.62
2018-09-21T09:21:02.008Z,998.63
2018-09-21T09:21:42.793Z,998.6
2018-09-21T09:22:23.444Z,998.61
2018-09-21T09:23:04.716Z,998.63
2018-09-21T09:23:45.297Z,998.7
2018-09-21T09:24:27.533Z,998.68
2018-09-21T09:25:06.764Z,998.58
2018-09-21T09:25:48.146Z,998.6
2018-09-21T09:26:28.765Z,998.64
2018-09-21T09:27:10.782Z,998.53
2018-09-21T09:27:51.815Z,998.62
2018-09-21T09:28:33.021Z,998.58
2018-09-21T09:29:13.805Z,998.61
2018-09-21T09:29:55.342Z,998.5
2018-09-21T09:30:36.322Z,998.63
2018-09-21T09:32:50.391Z,998.64
2018-09-21T09:33:51.488Z,998.74
2018-09-21T09:34:49.538Z,998.71
2018-09-21T09:35:47.852Z,998.71
2018-09-21T09:36:44.705Z,998.69
2018-09-21T09:39:22.679Z,998.78
2018-09-21T09:40:20.982Z,998.84
2018-09-21T09:41:18.034Z,998.77
2018-09-21T09:42:18.387Z,998.87
2018-09-21T09:43:17.149Z,998.88
2018-09-21T09:59:29.491Z,998.92
2018-09-21T10:00:28.353Z,998.85
2018-09-21T10:01:34.586Z,998.8
2018-09-21T10:02:29.264Z,998.83
2018-09-21T10:03:23.652Z,998.88
2018-09-21T10:04:24.145Z,998.77
2018-09-21T10:05:32.575Z,998.8
2018-09-21T10:06:32.959Z,998.89
2018-09-21T10:07:25.704Z,998.91
2018-09-21T10:08:32.222Z,998.96
2018-09-21T10:10:01.729Z,998.85
2018-09-21T10:11:01.839Z,999.03
2018-09-21T10:12:06.786Z,998.95
2018-09-21T10:14:17.673Z,998.95
2018-09-21T10:15:14.554Z,998.88
2018-09-21T10:16:12.733Z,998.9
2018-09-21T10:19:46.957Z,998.83
2018-09-21T10:20:28.083Z,998.88
2018-09-21T10:21:09.409Z,998.79
2018-09-21T10:21:50.599Z,998.84
2018-09-21T10:22:34.970Z,998.76
2018-09-21T10:23:16.355Z,998.82
2018-09-21T10:23:58.238Z,998.79
2018-09-21T10:24:39.320Z,998.82
2018-09-21T10:25:22.385Z,998.84
2018-09-21T10:26:03.391Z,998.84
2018-09-21T11:07:36.247Z,999.01
2018-09-21T11:08:28.904Z,998.86
2018-09-21T11:09:22.068Z,999.03
2018-09-21T11:10:14.810Z,999.05
2018-09-21T11:11:09.552Z,999.06
2018-09-21T11:12:02.151Z,999.04
2018-09-21T11:12:54.308Z,999.09
2018-09-21T11:13:47.712Z,999.05
2018-09-21T11:14:41.402Z,999
2018-09-21T11:15:33.878Z,999.06
2018-09-21T11:16:28.468Z,999.01
2018-09-21T11:17:23.050Z,999.02
2018-09-21T11:18:15.433Z,999.1
2018-09-21T11:19:08.208Z,999.07
2018-09-21T11:20:02.154Z,998.95
2018-09-21T11:25:50.245Z,998.98
2018-09-21T11:26:57.294Z,999.02
2018-09-21T11:28:11.611Z,998.94
2018-09-21T11:29:15.000Z,998.92
2018-09-21T11:30:11.960Z,998.95
2018-09-21T11:31:05.975Z,998.93
2018-09-21T11:32:00.091Z,998.95
2018-09-21T11:32:54.392Z,998.9
2018-09-21T11:34:46.482Z,998.97
2018-09-21T11:35:47.676Z,999.07
2018-09-21T11:36:53.165Z,999.03
2018-09-21T11:37:45.206Z,999.11
2018-09-21T11:38:39.063Z,999.11
2018-09-21T11:39:33.712Z,999.18
2018-09-21T11:41:42.671Z,999.23
2018-09-21T11:43:24.486Z,999.39
2018-09-21T11:46:47.265Z,999.34
2018-09-21T11:47:27.636Z,999.33
2018-09-21T11:48:08.035Z,999.43
2018-09-21T11:48:49.068Z,999.28
2018-09-21T11:49:29.514Z,999.36
2018-09-21T11:50:09.933Z,999.34
2018-09-21T11:50:50.320Z,999.32
2018-09-21T11:51:30.953Z,999.31
2018-09-21T11:52:11.387Z,999.3
2018-09-21T11:52:51.844Z,999.36
2018-09-21T11:53:33.069Z,999.37
2018-09-21T11:54:13.580Z,999.37
2018-09-21T11:54:54.225Z,999.28
2018-09-21T11:55:34.725Z,999.3
2018-09-21T11:56:15.132Z,999.29
2018-09-21T11:56:55.538Z,999.32
2018-09-21T11:57:36.908Z,999.37
2018-09-21T11:58:17.276Z,999.37
2018-09-21T11:58:57.707Z,999.45
2018-09-21T11:59:38.111Z,999.36
2018-09-21T12:00:18.611Z,999.22
2018-09-21T12:00:59.202Z,999.3
2018-09-21T12:01:40.189Z,999.3
2018-09-21T12:02:20.539Z,999.43
2018-09-21T12:03:01.006Z,999.43
2018-09-21T12:03:42.027Z,999.63
2018-09-21T12:04:22.396Z,999.77
2018-09-21T12:05:02.939Z,999.73
2018-09-21T12:05:43.324Z,999.78
2018-09-21T12:06:23.756Z,999.65
2018-09-21T12:07:04.166Z,999.71
2018-09-21T12:07:45.095Z,999.6
2018-09-21T12:08:25.650Z,999.76
2018-09-21T12:09:06.060Z,999.69
2018-09-21T12:09:46.557Z,999.8
2018-09-21T12:10:27.121Z,999.74
2018-09-21T12:11:07.646Z,999.85
2018-09-21T12:11:48.328Z,999.76
2018-09-21T12:12:28.950Z,999.87
2018-09-21T12:13:09.316Z,999.83
2018-09-21T12:13:50.028Z,999.81
2018-09-21T12:14:30.624Z,999.87
2018-09-21T12:15:11.569Z,999.97
2018-09-21T12:15:52.802Z,999.95
2018-09-21T12:16:33.210Z,999.97
2018-09-21T12:17:13.699Z,999.88
2018-09-21T12:17:54.822Z,1000.02
2018-09-21T12:18:36.901Z,999.99
2018-09-21T12:19:17.449Z,999.93
2018-09-21T12:19:57.924Z,999.98
2018-09-21T12:20:38.251Z,999.96
2018-09-21T12:23:35.601Z,1000.16
2018-09-21T12:24:16.235Z,1000.07
2018-09-21T12:24:56.613Z,1000.22
2018-09-21T12:25:36.987Z,1000.13
2018-09-21T12:26:17.533Z,1000.19
2018-09-21T12:26:57.938Z,1000.16
2018-09-21T12:27:38.344Z,1000.19
2018-09-21T12:28:18.793Z,1000.09
2018-09-21T12:28:59.445Z,1000.25
2018-09-21T12:29:40.081Z,1000.25
2018-09-21T12:30:20.546Z,1000.26
2018-09-21T12:31:00.911Z,1000.26
2018-09-21T12:31:41.374Z,1000.26
2018-09-21T12:32:22.167Z,1000.22
2018-09-21T12:33:02.463Z,1000.18
2018-09-21T12:33:42.989Z,1000.15
2018-09-21T12:34:23.543Z,1000.24
2018-09-21T12:35:04.137Z,1000.47
2018-09-21T12:35:44.606Z,1000.3
2018-09-21T12:36:25.328Z,1000.34
2018-09-21T12:37:05.696Z,1000.37
2018-09-21T12:37:46.054Z,1000.39
2018-09-21T12:38:26.517Z,1000.41
2018-09-21T12:39:06.959Z,1000.4
2018-09-21T12:39:47.438Z,1000.32
2018-09-21T12:40:27.914Z,1000.42
2018-09-21T12:41:08.317Z,1000.45
2018-09-21T12:41:48.918Z,1000.45
2018-09-21T12:42:29.476Z,1000.44
2018-09-21T12:43:09.885Z,1000.38
2018-09-21T12:43:50.271Z,1000.55
2018-09-21T12:44:30.835Z,1000.51
2018-09-21T12:45:11.499Z,1000.61
2018-09-21T12:45:52.756Z,1000.57
2018-09-21T12:46:33.354Z,1000.59
2018-09-21T12:47:13.599Z,1000.59
2018-09-21T12:47:54.043Z,1000.58
2018-09-21T12:48:34.486Z,1000.57
2018-09-21T12:49:14.978Z,1000.52
2018-09-21T12:49:55.697Z,1000.62
2018-09-21T12:50:36.402Z,1000.62
2018-09-21T12:51:16.822Z,1000.68
2018-09-21T12:51:57.401Z,1000.65
2018-09-21T12:52:37.940Z,1000.69
2018-09-21T12:53:18.345Z,1000.68
2018-09-21T12:53:58.849Z,1000.77
2018-09-21T12:54:39.324Z,1000.78
2018-09-21T12:55:19.690Z,1000.77
2018-09-21T12:57:48.729Z,1000.74
2018-09-21T12:58:29.625Z,1000.76
2018-09-21T12:59:09.912Z,1000.82
2018-09-21T12:59:50.560Z,1000.85
2018-09-21T13:03:20.159Z,1000.91
2018-09-21T13:04:14.738Z,1000.99
2018-09-21T13:05:10.369Z,1000.96
2018-09-21T13:06:03.312Z,1000.99
2018-09-21T13:06:56.745Z,1001.03
2018-09-21T13:07:50.766Z,1000.97
2018-09-21T13:08:50.277Z,1000.99
2018-09-21T13:09:42.841Z,1000.99
2018-09-21T13:10:35.224Z,1000.95
2018-09-21T13:11:28.450Z,1000.93
2018-09-21T13:12:20.522Z,1000.94
2018-09-21T13:13:12.947Z,1001.01
2018-09-21T13:14:06.222Z,1000.93
2018-09-21T13:14:58.865Z,1000.96
2018-09-21T13:15:51.219Z,1000.93
2018-09-21T13:16:43.890Z,1000.98
2018-09-21T13:17:36.369Z,1001.1
2018-09-21T13:18:29.892Z,1001.06
2018-09-21T13:19:23.238Z,1001.03
2018-09-21T13:20:16.643Z,1001
2018-09-21T13:21:09.403Z,1001
2018-09-21T13:22:01.810Z,1001.05
2018-09-21T13:22:54.725Z,1000.96
2018-09-21T13:23:48.382Z,1001.11
2018-09-21T13:24:40.767Z,1001.11
2018-09-21T13:25:34.207Z,1001.2
2018-09-21T13:26:26.628Z,1001.06
2018-09-21T13:27:20.106Z,1001.2
2018-09-21T13:28:12.728Z,1001.16
2018-09-21T13:29:06.215Z,1001.19
2018-09-21T13:29:58.330Z,1001.26
2018-09-21T13:30:51.432Z,1001.24
2018-09-21T13:31:43.788Z,1001.29
2018-09-21T13:32:36.203Z,1001.23
2018-09-21T13:33:28.782Z,1001.2
2018-09-21T13:34:21.081Z,1001.22
2018-09-21T13:35:13.192Z,1001.27
2018-09-21T13:36:05.733Z,1001.27
2018-09-21T13:36:58.244Z,1001.29
2018-09-21T13:37:50.755Z,1001.33
2018-09-21T13:38:43.035Z,1001.32
2018-09-21T13:39:35.952Z,1001.35
2018-09-21T13:40:28.121Z,1001.36
2018-09-21T13:41:20.089Z,1001.31
2018-09-21T13:42:12.901Z,1001.33
2018-09-21T13:43:06.409Z,1001.32
2018-09-21T13:43:58.710Z,1001.39
2018-09-21T13:44:51.743Z,1001.34
2018-09-21T13:45:45.012Z,1001.37
2018-09-21T13:46:37.244Z,1001.45
2018-09-21T13:47:29.696Z,1001.39
2018-09-21T13:48:22.778Z,1001.48
2018-09-21T13:49:15.450Z,1001.31
2018-09-21T13:50:08.089Z,1001.49